sensor_id;sensor_type;location;lat;lon;timestamp;P1;durP1;ratioP1;P2;durP2;ratioP2
47778;SDS011;33538;48.432;11.350;2023-02-12T00:01:36;21.67;;;8.95;;
47778;SDS011;33538;48.432;11.350;2023-02-12T00:04:03;19.48;;;8.85;;
47778;SDS011;33538;48.432;11.350;2023-02-12T00:06:30;21.85;;;9.50;;
47778;SDS011;33538;48.432;11.350;2023-02-12T00:08:57;21.10;;;9.15;;
47778;SDS011;33538;48.432;11.350;2023-02-12T00:11:25;20.52;;;8.75;;
47778;SDS011;33538;48.432;11.350;2023-02-12T00:13:53;21.17;;;8.60;;
47778;SDS011;33538;48.432;11.350;2023-02-12T00:16:21;23.73;;;9.30;;
47778;SDS011;33538;48.432;11.350;2023-02-12T00:18:51;20.92;;;9.50;;
47778;SDS011;33538;48.432;11.350;2023-02-12T00:21:19;28.17;;;9.75;;
47778;SDS011;33538;48.432;11.350;2023-02-12T00:23:46;20.15;;;8.70;;
47778;SDS011;33538;48.432;11.350;2023-02-12T00:26:15;22.13;;;9.55;;
47778;SDS011;33538;48.432;11.350;2023-02-12T00:28:44;24.73;;;10.52;;
47778;SDS011;33538;48.432;11.350;2023-02-12T00:31:12;26.23;;;10.20;;
47778;SDS011;33538;48.432;11.350;2023-02-12T00:33:40;23.45;;;9.60;;
47778;SDS011;33538;48.432;11.350;2023-02-12T00:36:09;24.38;;;9.98;;
47778;SDS011;33538;48.432;11.350;2023-02-12T00:38:39;26.75;;;10.65;;
47778;SDS011;33538;48.432;11.350;2023-02-12T00:41:06;31.98;;;10.43;;
47778;SDS011;33538;48.432;11.350;2023-02-12T00:43:33;23.60;;;9.13;;
47778;SDS011;33538;48.432;11.350;2023-02-12T00:46:00;24.25;;;9.73;;
47778;SDS011;33538;48.432;11.350;2023-02-12T00:48:27;29.45;;;11.45;;
47778;SDS011;33538;48.432;11.350;2023-02-12T00:50:54;25.92;;;10.60;;
47778;SDS011;33538;48.432;11.350;2023-02-12T00:53:22;26.25;;;11.50;;
47778;SDS011;33538;48.432;11.350;2023-02-12T00:55:49;24.95;;;11.27;;
47778;SDS011;33538;48.432;11.350;2023-02-12T00:58:16;32.70;;;12.43;;
47778;SDS011;33538;48.432;11.350;2023-02-12T01:00:44;28.55;;;10.88;;
47778;SDS011;33538;48.432;11.350;2023-02-12T01:03:11;28.55;;;11.10;;
47778;SDS011;33538;48.432;11.350;2023-02-12T01:05:38;27.63;;;10.68;;
47778;SDS011;33538;48.432;11.350;2023-02-12T01:08:04;29.20;;;12.73;;
47778;SDS011;33538;48.432;11.350;2023-02-12T01:10:32;33.33;;;11.85;;
47778;SDS011;33538;48.432;11.350;2023-02-12T01:12:59;30.02;;;11.50;;
47778;SDS011;33538;48.432;11.350;2023-02-12T01:15:26;24.75;;;11.18;;
47778;SDS011;33538;48.432;11.350;2023-02-12T01:17:53;35.30;;;12.23;;
47778;SDS011;33538;48.432;11.350;2023-02-12T01:20:21;30.27;;;10.85;;
47778;SDS011;33538;48.432;11.350;2023-02-12T01:22:50;28.88;;;11.45;;
47778;SDS011;33538;48.432;11.350;2023-02-12T01:25:17;29.20;;;11.13;;
47778;SDS011;33538;48.432;11.350;2023-02-12T01:27:47;27.85;;;10.95;;
47778;SDS011;33538;48.432;11.350;2023-02-12T01:30:14;31.45;;;11.57;;
47778;SDS011;33538;48.432;11.350;2023-02-12T01:32:41;27.33;;;11.63;;
47778;SDS011;33538;48.432;11.350;2023-02-12T01:35:08;28.27;;;11.48;;
47778;SDS011;33538;48.432;11.350;2023-02-12T01:37:35;27.55;;;11.68;;
47778;SDS011;33538;48.432;11.350;2023-02-12T01:40:03;30.45;;;11.77;;
47778;SDS011;33538;48.432;11.350;2023-02-12T01:42:30;31.27;;;12.32;;
47778;SDS011;33538;48.432;11.350;2023-02-12T01:48:09;28.08;;;12.25;;
47778;SDS011;33538;48.432;11.350;2023-02-12T01:50:36;34.17;;;12.90;;
47778;SDS011;33538;48.432;11.350;2023-02-12T01:53:03;30.20;;;12.32;;
47778;SDS011;33538;48.432;11.350;2023-02-12T01:55:30;31.35;;;13.50;;
47778;SDS011;33538;48.432;11.350;2023-02-12T01:57:57;26.80;;;12.65;;
47778;SDS011;33538;48.432;11.350;2023-02-12T02:00:24;30.70;;;11.65;;
47778;SDS011;33538;48.432;11.350;2023-02-12T02:02:53;27.90;;;12.15;;
47778;SDS011;33538;48.432;11.350;2023-02-12T02:05:25;29.95;;;12.18;;
47778;SDS011;33538;48.432;11.350;2023-02-12T02:10:22;27.55;;;11.40;;
47778;SDS011;33538;48.432;11.350;2023-02-12T02:12:49;26.75;;;11.52;;
47778;SDS011;33538;48.432;11.350;2023-02-12T02:15:16;30.80;;;12.65;;
47778;SDS011;33538;48.432;11.350;2023-02-12T02:17:46;33.47;;;13.52;;
47778;SDS011;33538;48.432;11.350;2023-02-12T02:23:33;29.77;;;11.57;;
47778;SDS011;33538;48.432;11.350;2023-02-12T02:26:19;27.50;;;12.18;;
47778;SDS011;33538;48.432;11.350;2023-02-12T02:29:19;28.77;;;13.30;;
47778;SDS011;33538;48.432;11.350;2023-02-12T02:32:09;32.90;;;13.35;;
47778;SDS011;33538;48.432;11.350;2023-02-12T02:34:43;28.25;;;12.30;;
47778;SDS011;33538;48.432;11.350;2023-02-12T02:39:46;29.80;;;12.07;;
47778;SDS011;33538;48.432;11.350;2023-02-12T02:42:17;28.47;;;12.23;;
47778;SDS011;33538;48.432;11.350;2023-02-12T02:44:51;31.77;;;12.70;;
47778;SDS011;33538;48.432;11.350;2023-02-12T02:47:21;31.75;;;12.75;;
47778;SDS011;33538;48.432;11.350;2023-02-12T02:49:53;32.22;;;14.02;;
47778;SDS011;33538;48.432;11.350;2023-02-12T02:52:34;34.97;;;13.18;;
47778;SDS011;33538;48.432;11.350;2023-02-12T02:55:05;28.23;;;11.73;;
47778;SDS011;33538;48.432;11.350;2023-02-12T02:57:35;33.17;;;13.70;;
47778;SDS011;33538;48.432;11.350;2023-02-12T03:00:08;32.75;;;12.68;;
47778;SDS011;33538;48.432;11.350;2023-02-12T03:02:41;32.92;;;13.55;;
47778;SDS011;33538;48.432;11.350;2023-02-12T03:05:13;35.40;;;13.27;;
47778;SDS011;33538;48.432;11.350;2023-02-12T03:07:45;32.97;;;12.80;;
47778;SDS011;33538;48.432;11.350;2023-02-12T03:10:16;28.08;;;12.32;;
47778;SDS011;33538;48.432;11.350;2023-02-12T03:12:46;37.80;;;13.40;;
47778;SDS011;33538;48.432;11.350;2023-02-12T03:15:18;39.93;;;14.37;;
47778;SDS011;33538;48.432;11.350;2023-02-12T03:17:51;35.83;;;13.98;;
47778;SDS011;33538;48.432;11.350;2023-02-12T03:20:19;37.80;;;13.30;;
47778;SDS011;33538;48.432;11.350;2023-02-12T03:22:50;40.30;;;13.70;;
47778;SDS011;33538;48.432;11.350;2023-02-12T03:25:21;39.67;;;14.18;;
47778;SDS011;33538;48.432;11.350;2023-02-12T03:27:53;41.17;;;14.40;;
47778;SDS011;33538;48.432;11.350;2023-02-12T03:30:33;29.20;;;12.68;;
47778;SDS011;33538;48.432;11.350;2023-02-12T03:33:09;27.67;;;12.68;;
47778;SDS011;33538;48.432;11.350;2023-02-12T03:35:50;30.10;;;13.07;;
47778;SDS011;33538;48.432;11.350;2023-02-12T03:38:24;32.85;;;13.18;;
47778;SDS011;33538;48.432;11.350;2023-02-12T03:40:57;28.65;;;12.57;;
47778;SDS011;33538;48.432;11.350;2023-02-12T03:43:31;31.90;;;12.93;;
47778;SDS011;33538;48.432;11.350;2023-02-12T03:46:06;32.63;;;12.98;;
47778;SDS011;33538;48.432;11.350;2023-02-12T03:48:43;33.80;;;13.15;;
47778;SDS011;33538;48.432;11.350;2023-02-12T03:51:17;31.23;;;12.40;;
47778;SDS011;33538;48.432;11.350;2023-02-12T03:53:48;29.35;;;13.23;;
47778;SDS011;33538;48.432;11.350;2023-02-12T03:56:16;32.80;;;13.48;;
47778;SDS011;33538;48.432;11.350;2023-02-12T03:58:47;35.10;;;13.93;;
47778;SDS011;33538;48.432;11.350;2023-02-12T04:01:14;34.92;;;13.65;;
47778;SDS011;33538;48.432;11.350;2023-02-12T04:03:42;39.72;;;15.57;;
47778;SDS011;33538;48.432;11.350;2023-02-12T04:06:17;39.83;;;14.60;;
47778;SDS011;33538;48.432;11.350;2023-02-12T04:08:45;34.50;;;13.02;;
47778;SDS011;33538;48.432;11.350;2023-02-12T04:11:14;39.80;;;12.73;;
47778;SDS011;33538;48.432;11.350;2023-02-12T04:13:52;31.33;;;12.38;;
47778;SDS011;33538;48.432;11.350;2023-02-12T04:16:34;36.38;;;14.45;;
47778;SDS011;33538;48.432;11.350;2023-02-12T04:19:08;34.85;;;13.30;;
47778;SDS011;33538;48.432;11.350;2023-02-12T04:21:42;31.75;;;12.15;;
47778;SDS011;33538;48.432;11.350;2023-02-12T04:24:21;35.25;;;13.55;;
47778;SDS011;33538;48.432;11.350;2023-02-12T04:26:54;31.25;;;13.40;;
47778;SDS011;33538;48.432;11.350;2023-02-12T04:29:25;30.60;;;12.38;;
47778;SDS011;33538;48.432;11.350;2023-02-12T04:32:00;35.95;;;14.00;;
47778;SDS011;33538;48.432;11.350;2023-02-12T04:34:33;30.30;;;12.38;;
47778;SDS011;33538;48.432;11.350;2023-02-12T04:37:05;33.33;;;13.77;;
47778;SDS011;33538;48.432;11.350;2023-02-12T04:39:37;29.77;;;13.20;;
47778;SDS011;33538;48.432;11.350;2023-02-12T04:42:06;39.58;;;14.18;;
47778;SDS011;33538;48.432;11.350;2023-02-12T04:44:33;34.88;;;13.55;;
47778;SDS011;33538;48.432;11.350;2023-02-12T04:47:03;37.03;;;14.40;;
47778;SDS011;33538;48.432;11.350;2023-02-12T04:49:30;30.60;;;13.30;;
47778;SDS011;33538;48.432;11.350;2023-02-12T04:51:58;35.13;;;13.77;;
47778;SDS011;33538;48.432;11.350;2023-02-12T04:54:25;35.80;;;13.88;;
47778;SDS011;33538;48.432;11.350;2023-02-12T04:56:52;31.83;;;12.35;;
47778;SDS011;33538;48.432;11.350;2023-02-12T04:59:18;32.15;;;13.50;;
47778;SDS011;33538;48.432;11.350;2023-02-12T05:01:45;32.28;;;14.07;;
47778;SDS011;33538;48.432;11.350;2023-02-12T05:04:12;36.55;;;13.00;;
47778;SDS011;33538;48.432;11.350;2023-02-12T05:06:40;32.00;;;13.68;;
47778;SDS011;33538;48.432;11.350;2023-02-12T05:09:11;32.15;;;12.57;;
47778;SDS011;33538;48.432;11.350;2023-02-12T05:11:40;34.50;;;14.23;;
47778;SDS011;33538;48.432;11.350;2023-02-12T05:14:06;32.35;;;13.40;;
47778;SDS011;33538;48.432;11.350;2023-02-12T05:16:33;30.25;;;12.13;;
47778;SDS011;33538;48.432;11.350;2023-02-12T05:19:00;31.27;;;12.95;;
47778;SDS011;33538;48.432;11.350;2023-02-12T05:21:27;39.42;;;14.60;;
47778;SDS011;33538;48.432;11.350;2023-02-12T05:23:54;34.60;;;12.93;;
47778;SDS011;33538;48.432;11.350;2023-02-12T05:26:22;36.83;;;13.15;;
47778;SDS011;33538;48.432;11.350;2023-02-12T05:28:49;30.33;;;12.50;;
47778;SDS011;33538;48.432;11.350;2023-02-12T05:31:17;32.92;;;12.23;;
47778;SDS011;33538;48.432;11.350;2023-02-12T05:33:47;31.50;;;12.35;;
47778;SDS011;33538;48.432;11.350;2023-02-12T05:36:15;30.92;;;13.35;;
47778;SDS011;33538;48.432;11.350;2023-02-12T05:38:44;24.25;;;11.82;;
47778;SDS011;33538;48.432;11.350;2023-02-12T05:41:11;23.63;;;11.65;;
47778;SDS011;33538;48.432;11.350;2023-02-12T05:43:41;35.13;;;13.95;;
47778;SDS011;33538;48.432;11.350;2023-02-12T05:46:08;34.17;;;12.98;;
47778;SDS011;33538;48.432;11.350;2023-02-12T05:48:36;37.38;;;14.45;;
47778;SDS011;33538;48.432;11.350;2023-02-12T05:51:03;38.60;;;14.88;;
47778;SDS011;33538;48.432;11.350;2023-02-12T05:53:32;29.77;;;12.82;;
47778;SDS011;33538;48.432;11.350;2023-02-12T05:56:07;31.98;;;12.98;;
47778;SDS011;33538;48.432;11.350;2023-02-12T05:58:38;31.08;;;12.88;;
47778;SDS011;33538;48.432;11.350;2023-02-12T06:01:11;35.92;;;14.32;;
47778;SDS011;33538;48.432;11.350;2023-02-12T06:03:40;30.15;;;12.50;;
47778;SDS011;33538;48.432;11.350;2023-02-12T06:06:07;31.75;;;13.68;;
47778;SDS011;33538;48.432;11.350;2023-02-12T06:08:34;33.88;;;14.40;;
47778;SDS011;33538;48.432;11.350;2023-02-12T06:11:01;37.40;;;14.55;;
47778;SDS011;33538;48.432;11.350;2023-02-12T06:13:29;40.05;;;15.82;;
47778;SDS011;33538;48.432;11.350;2023-02-12T06:15:57;42.53;;;17.05;;
47778;SDS011;33538;48.432;11.350;2023-02-12T06:18:26;42.28;;;15.85;;
47778;SDS011;33538;48.432;11.350;2023-02-12T06:20:53;37.53;;;15.35;;
47778;SDS011;33538;48.432;11.350;2023-02-12T06:23:20;33.47;;;14.45;;
47778;SDS011;33538;48.432;11.350;2023-02-12T06:25:47;42.38;;;15.32;;
47778;SDS011;33538;48.432;11.350;2023-02-12T06:28:14;35.70;;;14.02;;
47778;SDS011;33538;48.432;11.350;2023-02-12T06:30:41;37.75;;;14.13;;
47778;SDS011;33538;48.432;11.350;2023-02-12T06:33:08;36.90;;;14.00;;
47778;SDS011;33538;48.432;11.350;2023-02-12T06:35:36;29.88;;;12.80;;
47778;SDS011;33538;48.432;11.350;2023-02-12T06:38:04;33.35;;;13.60;;
47778;SDS011;33538;48.432;11.350;2023-02-12T06:40:31;36.30;;;15.10;;
47778;SDS011;33538;48.432;11.350;2023-02-12T06:42:58;41.50;;;15.23;;
47778;SDS011;33538;48.432;11.350;2023-02-12T06:45:25;43.05;;;15.98;;
47778;SDS011;33538;48.432;11.350;2023-02-12T06:47:52;44.67;;;16.83;;
47778;SDS011;33538;48.432;11.350;2023-02-12T06:50:19;46.65;;;17.48;;
47778;SDS011;33538;48.432;11.350;2023-02-12T06:52:47;48.88;;;17.77;;
47778;SDS011;33538;48.432;11.350;2023-02-12T06:55:14;48.03;;;18.05;;
47778;SDS011;33538;48.432;11.350;2023-02-12T06:57:41;45.28;;;17.80;;
47778;SDS011;33538;48.432;11.350;2023-02-12T07:00:08;43.97;;;17.83;;
47778;SDS011;33538;48.432;11.350;2023-02-12T07:02:36;44.30;;;16.35;;
47778;SDS011;33538;48.432;11.350;2023-02-12T07:05:04;49.40;;;16.90;;
47778;SDS011;33538;48.432;11.350;2023-02-12T07:07:31;44.15;;;16.58;;
47778;SDS011;33538;48.432;11.350;2023-02-12T07:09:59;37.20;;;15.80;;
47778;SDS011;33538;48.432;11.350;2023-02-12T07:12:26;42.58;;;16.02;;
47778;SDS011;33538;48.432;11.350;2023-02-12T07:14:53;48.58;;;17.83;;
47778;SDS011;33538;48.432;11.350;2023-02-12T07:17:20;39.17;;;15.82;;
47778;SDS011;33538;48.432;11.350;2023-02-12T07:19:46;45.38;;;15.43;;
47778;SDS011;33538;48.432;11.350;2023-02-12T07:22:13;35.17;;;13.75;;
47778;SDS011;33538;48.432;11.350;2023-02-12T07:24:40;41.75;;;15.57;;
47778;SDS011;33538;48.432;11.350;2023-02-12T07:27:08;43.47;;;16.00;;
47778;SDS011;33538;48.432;11.350;2023-02-12T07:29:35;38.53;;;15.50;;
47778;SDS011;33538;48.432;11.350;2023-02-12T07:32:02;39.58;;;15.27;;
47778;SDS011;33538;48.432;11.350;2023-02-12T07:34:29;45.90;;;15.68;;
47778;SDS011;33538;48.432;11.350;2023-02-12T07:36:56;45.45;;;16.95;;
47778;SDS011;33538;48.432;11.350;2023-02-12T07:39:22;42.50;;;15.82;;
47778;SDS011;33538;48.432;11.350;2023-02-12T07:41:49;44.72;;;17.00;;
47778;SDS011;33538;48.432;11.350;2023-02-12T07:44:17;45.22;;;17.73;;
47778;SDS011;33538;48.432;11.350;2023-02-12T07:46:45;44.60;;;15.43;;
47778;SDS011;33538;48.432;11.350;2023-02-12T07:49:14;44.85;;;16.25;;
47778;SDS011;33538;48.432;11.350;2023-02-12T07:51:42;44.15;;;16.42;;
47778;SDS011;33538;48.432;11.350;2023-02-12T07:54:09;40.20;;;15.93;;
47778;SDS011;33538;48.432;11.350;2023-02-12T07:56:36;66.00;;;23.75;;
47778;SDS011;33538;48.432;11.350;2023-02-12T07:59:06;60.70;;;20.05;;
47778;SDS011;33538;48.432;11.350;2023-02-12T08:01:37;45.28;;;15.82;;
47778;SDS011;33538;48.432;11.350;2023-02-12T08:04:06;43.47;;;15.30;;
47778;SDS011;33538;48.432;11.350;2023-02-12T08:06:35;49.33;;;17.77;;
47778;SDS011;33538;48.432;11.350;2023-02-12T08:09:04;40.70;;;14.00;;
47778;SDS011;33538;48.432;11.350;2023-02-12T08:11:32;47.40;;;15.48;;
47778;SDS011;33538;48.432;11.350;2023-02-12T08:13:59;42.05;;;15.70;;
47778;SDS011;33538;48.432;11.350;2023-02-12T08:16:26;38.60;;;14.52;;
47778;SDS011;33538;48.432;11.350;2023-02-12T08:18:55;41.00;;;14.15;;
47778;SDS011;33538;48.432;11.350;2023-02-12T08:21:39;44.08;;;14.95;;
47778;SDS011;33538;48.432;11.350;2023-02-12T08:24:06;45.53;;;14.15;;
47778;SDS011;33538;48.432;11.350;2023-02-12T08:26:35;39.33;;;13.25;;
47778;SDS011;33538;48.432;11.350;2023-02-12T08:29:04;44.60;;;13.95;;
47778;SDS011;33538;48.432;11.350;2023-02-12T08:31:32;41.05;;;13.75;;
47778;SDS011;33538;48.432;11.350;2023-02-12T08:34:01;46.60;;;14.75;;
47778;SDS011;33538;48.432;11.350;2023-02-12T08:36:29;47.67;;;13.98;;
47778;SDS011;33538;48.432;11.350;2023-02-12T08:39:00;43.40;;;14.13;;
47778;SDS011;33538;48.432;11.350;2023-02-12T08:41:27;42.03;;;14.85;;
47778;SDS011;33538;48.432;11.350;2023-02-12T08:43:55;49.15;;;14.57;;
47778;SDS011;33538;48.432;11.350;2023-02-12T08:46:23;42.72;;;14.50;;
47778;SDS011;33538;48.432;11.350;2023-02-12T08:48:52;50.53;;;15.25;;
47778;SDS011;33538;48.432;11.350;2023-02-12T08:51:22;40.97;;;12.68;;
47778;SDS011;33538;48.432;11.350;2023-02-12T08:53:50;39.85;;;13.93;;
47778;SDS011;33538;48.432;11.350;2023-02-12T08:56:18;35.55;;;12.68;;
47778;SDS011;33538;48.432;11.350;2023-02-12T08:58:45;40.78;;;12.30;;
47778;SDS011;33538;48.432;11.350;2023-02-12T09:01:13;43.15;;;13.52;;
47778;SDS011;33538;48.432;11.350;2023-02-12T09:03:41;36.22;;;12.98;;
47778;SDS011;33538;48.432;11.350;2023-02-12T09:06:09;38.97;;;12.43;;
47778;SDS011;33538;48.432;11.350;2023-02-12T09:08:37;39.97;;;13.75;;
47778;SDS011;33538;48.432;11.350;2023-02-12T09:11:04;38.50;;;13.23;;
47778;SDS011;33538;48.432;11.350;2023-02-12T09:13:32;42.28;;;12.43;;
47778;SDS011;33538;48.432;11.350;2023-02-12T09:15:59;38.65;;;12.25;;
47778;SDS011;33538;48.432;11.350;2023-02-12T09:18:26;40.78;;;11.98;;
47778;SDS011;33538;48.432;11.350;2023-02-12T09:20:54;33.67;;;11.02;;
47778;SDS011;33538;48.432;11.350;2023-02-12T09:23:25;38.17;;;11.55;;
47778;SDS011;33538;48.432;11.350;2023-02-12T09:25:53;35.50;;;12.40;;
47778;SDS011;33538;48.432;11.350;2023-02-12T09:28:20;38.72;;;13.63;;
47778;SDS011;33538;48.432;11.350;2023-02-12T09:30:48;39.90;;;13.10;;
47778;SDS011;33538;48.432;11.350;2023-02-12T09:33:15;36.40;;;13.00;;
47778;SDS011;33538;48.432;11.350;2023-02-12T09:35:41;31.60;;;12.40;;
47778;SDS011;33538;48.432;11.350;2023-02-12T09:38:08;36.42;;;11.63;;
47778;SDS011;33538;48.432;11.350;2023-02-12T09:40:37;35.30;;;12.27;;
47778;SDS011;33538;48.432;11.350;2023-02-12T09:43:13;35.03;;;11.50;;
47778;SDS011;33538;48.432;11.350;2023-02-12T09:45:44;33.88;;;9.80;;
47778;SDS011;33538;48.432;11.350;2023-02-12T09:48:23;30.95;;;10.20;;
47778;SDS011;33538;48.432;11.350;2023-02-12T09:50:59;35.80;;;11.30;;
47778;SDS011;33538;48.432;11.350;2023-02-12T09:53:30;37.38;;;11.10;;
47778;SDS011;33538;48.432;11.350;2023-02-12T09:56:00;31.23;;;11.07;;
47778;SDS011;33538;48.432;11.350;2023-02-12T09:58:30;32.80;;;11.00;;
47778;SDS011;33538;48.432;11.350;2023-02-12T10:01:00;29.50;;;11.32;;
47778;SDS011;33538;48.432;11.350;2023-02-12T10:03:35;41.10;;;12.85;;
47778;SDS011;33538;48.432;11.350;2023-02-12T10:06:02;33.72;;;9.75;;
47778;SDS011;33538;48.432;11.350;2023-02-12T10:11:35;25.85;;;9.02;;
47778;SDS011;33538;48.432;11.350;2023-02-12T10:14:20;20.27;;;7.75;;
47778;SDS011;33538;48.432;11.350;2023-02-12T10:17:15;22.55;;;9.07;;
47778;SDS011;33538;48.432;11.350;2023-02-12T10:19:51;25.10;;;9.20;;
47778;SDS011;33538;48.432;11.350;2023-02-12T10:22:38;27.98;;;10.60;;
47778;SDS011;33538;48.432;11.350;2023-02-12T10:25:23;20.83;;;7.13;;
47778;SDS011;33538;48.432;11.350;2023-02-12T10:27:56;15.70;;;5.85;;
47778;SDS011;33538;48.432;11.350;2023-02-12T10:30:29;15.88;;;6.32;;
47778;SDS011;33538;48.432;11.350;2023-02-12T10:33:03;21.77;;;6.95;;
47778;SDS011;33538;48.432;11.350;2023-02-12T10:35:34;15.82;;;5.78;;
47778;SDS011;33538;48.432;11.350;2023-02-12T10:38:03;16.30;;;6.15;;
47778;SDS011;33538;48.432;11.350;2023-02-12T10:40:32;20.58;;;7.80;;
47778;SDS011;33538;48.432;11.350;2023-02-12T10:43:01;30.30;;;13.43;;
47778;SDS011;33538;48.432;11.350;2023-02-12T10:45:30;45.35;;;18.65;;
47778;SDS011;33538;48.432;11.350;2023-02-12T10:48:03;35.45;;;13.93;;
47778;SDS011;33538;48.432;11.350;2023-02-12T10:50:37;40.38;;;15.65;;
47778;SDS011;33538;48.432;11.350;2023-02-12T10:53:16;30.50;;;9.50;;
47778;SDS011;33538;48.432;11.350;2023-02-12T10:55:46;21.25;;;7.07;;
47778;SDS011;33538;48.432;11.350;2023-02-12T10:58:17;21.38;;;8.40;;
47778;SDS011;33538;48.432;11.350;2023-02-12T11:00:48;33.73;;;13.77;;
47778;SDS011;33538;48.432;11.350;2023-02-12T11:03:22;24.88;;;10.80;;
47778;SDS011;33538;48.432;11.350;2023-02-12T11:05:54;24.67;;;9.80;;
47778;SDS011;33538;48.432;11.350;2023-02-12T11:08:27;20.38;;;7.57;;
47778;SDS011;33538;48.432;11.350;2023-02-12T11:11:01;27.55;;;9.77;;
47778;SDS011;33538;48.432;11.350;2023-02-12T11:13:30;82.80;;;24.38;;
47778;SDS011;33538;48.432;11.350;2023-02-12T11:15:58;33.97;;;10.48;;
47778;SDS011;33538;48.432;11.350;2023-02-12T11:18:26;76.70;;;26.10;;
47778;SDS011;33538;48.432;11.350;2023-02-12T11:20:55;31.23;;;11.07;;
47778;SDS011;33538;48.432;11.350;2023-02-12T11:23:25;27.15;;;8.63;;
47778;SDS011;33538;48.432;11.350;2023-02-12T11:25:54;26.77;;;8.88;;
47778;SDS011;33538;48.432;11.350;2023-02-12T11:28:23;23.85;;;9.32;;
47778;SDS011;33538;48.432;11.350;2023-02-12T11:30:51;23.52;;;8.15;;
47778;SDS011;33538;48.432;11.350;2023-02-12T11:33:26;26.05;;;8.00;;
47778;SDS011;33538;48.432;11.350;2023-02-12T11:35:55;23.80;;;8.50;;
47778;SDS011;33538;48.432;11.350;2023-02-12T11:38:25;25.85;;;8.60;;
47778;SDS011;33538;48.432;11.350;2023-02-12T11:40:56;24.42;;;8.00;;
47778;SDS011;33538;48.432;11.350;2023-02-12T11:43:28;19.00;;;6.80;;
47778;SDS011;33538;48.432;11.350;2023-02-12T11:45:58;21.65;;;7.18;;
47778;SDS011;33538;48.432;11.350;2023-02-12T11:48:28;22.20;;;7.53;;
47778;SDS011;33538;48.432;11.350;2023-02-12T11:50:58;29.27;;;8.38;;
47778;SDS011;33538;48.432;11.350;2023-02-12T11:53:28;19.77;;;7.15;;
47778;SDS011;33538;48.432;11.350;2023-02-12T11:55:57;19.50;;;6.07;;
47778;SDS011;33538;48.432;11.350;2023-02-12T11:58:27;20.55;;;6.57;;
47778;SDS011;33538;48.432;11.350;2023-02-12T12:00:57;19.65;;;7.18;;
47778;SDS011;33538;48.432;11.350;2023-02-12T12:03:35;17.63;;;6.57;;
47778;SDS011;33538;48.432;11.350;2023-02-12T12:06:13;20.35;;;7.07;;
47778;SDS011;33538;48.432;11.350;2023-02-12T12:08:48;92.13;;;33.10;;
47778;SDS011;33538;48.432;11.350;2023-02-12T12:11:20;22.15;;;8.18;;
47778;SDS011;33538;48.432;11.350;2023-02-12T12:13:52;13.98;;;6.38;;
47778;SDS011;33538;48.432;11.350;2023-02-12T12:16:26;16.73;;;7.32;;
47778;SDS011;33538;48.432;11.350;2023-02-12T12:18:58;25.77;;;9.18;;
47778;SDS011;33538;48.432;11.350;2023-02-12T12:21:33;23.55;;;8.40;;
47778;SDS011;33538;48.432;11.350;2023-02-12T12:24:07;19.50;;;7.07;;
47778;SDS011;33538;48.432;11.350;2023-02-12T12:26:38;26.17;;;8.32;;
47778;SDS011;33538;48.432;11.350;2023-02-12T12:29:12;22.55;;;9.50;;
47778;SDS011;33538;48.432;11.350;2023-02-12T12:31:46;23.92;;;7.85;;
47778;SDS011;33538;48.432;11.350;2023-02-12T12:34:17;24.05;;;8.55;;
47778;SDS011;33538;48.432;11.350;2023-02-12T12:36:52;30.70;;;10.60;;
47778;SDS011;33538;48.432;11.350;2023-02-12T12:39:35;25.85;;;9.25;;
47778;SDS011;33538;48.432;11.350;2023-02-12T12:42:20;20.13;;;6.95;;
47778;SDS011;33538;48.432;11.350;2023-02-12T12:45:09;23.02;;;7.28;;
47778;SDS011;33538;48.432;11.350;2023-02-12T12:47:56;19.25;;;6.53;;
47778;SDS011;33538;48.432;11.350;2023-02-12T12:50:38;21.42;;;8.07;;
47778;SDS011;33538;48.432;11.350;2023-02-12T12:53:23;19.55;;;7.10;;
47778;SDS011;33538;48.432;11.350;2023-02-12T12:56:03;22.35;;;7.50;;
47778;SDS011;33538;48.432;11.350;2023-02-12T12:58:48;18.20;;;7.07;;
47778;SDS011;33538;48.432;11.350;2023-02-12T13:04:36;21.77;;;6.38;;
47778;SDS011;33538;48.432;11.350;2023-02-12T13:07:34;17.23;;;6.88;;
47778;SDS011;33538;48.432;11.350;2023-02-12T13:10:24;29.20;;;8.55;;
47778;SDS011;33538;48.432;11.350;2023-02-12T13:13:00;22.73;;;7.05;;
47778;SDS011;33538;48.432;11.350;2023-02-12T13:15:48;30.90;;;10.52;;
47778;SDS011;33538;48.432;11.350;2023-02-12T13:18:24;21.70;;;8.75;;
47778;SDS011;33538;48.432;11.350;2023-02-12T13:21:03;28.55;;;8.18;;
47778;SDS011;33538;48.432;11.350;2023-02-12T13:23:40;30.85;;;11.00;;
47778;SDS011;33538;48.432;11.350;2023-02-12T13:26:14;23.80;;;8.75;;
47778;SDS011;33538;48.432;11.350;2023-02-12T13:28:47;18.38;;;7.20;;
47778;SDS011;33538;48.432;11.350;2023-02-12T13:31:19;25.35;;;9.30;;
47778;SDS011;33538;48.432;11.350;2023-02-12T13:34:00;28.15;;;9.38;;
47778;SDS011;33538;48.432;11.350;2023-02-12T13:36:28;28.15;;;9.07;;
47778;SDS011;33538;48.432;11.350;2023-02-12T13:38:58;35.85;;;11.95;;
47778;SDS011;33538;48.432;11.350;2023-02-12T13:41:29;28.92;;;8.43;;
47778;SDS011;33538;48.432;11.350;2023-02-12T13:44:00;30.00;;;8.70;;
47778;SDS011;33538;48.432;11.350;2023-02-12T13:46:38;25.15;;;8.95;;
47778;SDS011;33538;48.432;11.350;2023-02-12T13:49:21;22.27;;;8.43;;
47778;SDS011;33538;48.432;11.350;2023-02-12T13:51:58;25.63;;;9.57;;
47778;SDS011;33538;48.432;11.350;2023-02-12T13:54:33;26.42;;;9.35;;
47778;SDS011;33538;48.432;11.350;2023-02-12T13:57:10;21.10;;;8.45;;
47778;SDS011;33538;48.432;11.350;2023-02-12T13:59:44;21.95;;;8.27;;
47778;SDS011;33538;48.432;11.350;2023-02-12T14:02:29;22.00;;;7.13;;
47778;SDS011;33538;48.432;11.350;2023-02-12T14:05:19;19.10;;;8.65;;
47778;SDS011;33538;48.432;11.350;2023-02-12T14:07:49;22.27;;;9.32;;
47778;SDS011;33538;48.432;11.350;2023-02-12T14:10:21;17.92;;;7.57;;
47778;SDS011;33538;48.432;11.350;2023-02-12T14:12:55;19.05;;;7.93;;
47778;SDS011;33538;48.432;11.350;2023-02-12T14:15:34;17.08;;;6.47;;
47778;SDS011;33538;48.432;11.350;2023-02-12T14:18:04;16.05;;;5.88;;
47778;SDS011;33538;48.432;11.350;2023-02-12T14:20:32;16.77;;;6.47;;
47778;SDS011;33538;48.432;11.350;2023-02-12T14:23:02;17.02;;;7.65;;
47778;SDS011;33538;48.432;11.350;2023-02-12T14:25:45;16.38;;;6.75;;
47778;SDS011;33538;48.432;11.350;2023-02-12T14:28:22;18.10;;;6.72;;
47778;SDS011;33538;48.432;11.350;2023-02-12T14:37:08;21.50;;;8.80;;
47778;SDS011;33538;48.432;11.350;2023-02-12T14:39:37;23.15;;;8.25;;
47778;SDS011;33538;48.432;11.350;2023-02-12T14:45:26;16.45;;;7.10;;
47778;SDS011;33538;48.432;11.350;2023-02-12T14:47:54;18.83;;;6.88;;
47778;SDS011;33538;48.432;11.350;2023-02-12T14:50:22;16.42;;;6.30;;
47778;SDS011;33538;48.432;11.350;2023-02-12T14:52:55;17.23;;;6.50;;
47778;SDS011;33538;48.432;11.350;2023-02-12T14:55:30;15.80;;;6.07;;
47778;SDS011;33538;48.432;11.350;2023-02-12T14:58:01;15.02;;;5.72;;
47778;SDS011;33538;48.432;11.350;2023-02-12T15:00:33;13.18;;;6.20;;
47778;SDS011;33538;48.432;11.350;2023-02-12T15:03:06;12.65;;;5.65;;